<?xml version="1.0" encoding="UTF-8" standalone="no" ?>
<gpx xmlns="http://www.topografix.com/GPX/1/1" xmlns:xsi="http://www.w3.org/2001/XMLSchema-instance" xsi:schemaLocation="http://www.topografix.com/GPX/1/1 http://www.topografix.com/GPX/1/1/gpx.xsd" version="1.1" creator="VisuGPX - https://www.visugpx.com">
  <metadata>
    <name>Le Cougoir (Drôme)</name>
    <desc><![CDATA[Randonnée peu difficile avec un départ au-dessus de Venterol]]></desc>
  </metadata>
  <trk>
    <name><![CDATA[Le Cougoir  - PD-]]></name>
    <trkseg>
      <trkpt lat="44.42529" lon="5.11887">
        <ele>621</ele>
        <time>2021-04-27T07:00:00.14Z</time>
      </trkpt>
      <trkpt lat="44.42585" lon="5.11895">
        <ele>628</ele>
        <time>2021-04-27T07:01:55.11Z</time>
      </trkpt>
      <trkpt lat="44.4258" lon="5.11905">
        <ele>629</ele>
        <time>2021-04-27T07:02:14.21Z</time>
      </trkpt>
      <trkpt lat="44.4256" lon="5.1192">
        <ele>633</ele>
        <time>2021-04-27T07:03:10.76Z</time>
      </trkpt>
      <trkpt lat="44.42561" lon="5.11933">
        <ele>635</ele>
        <time>2021-04-27T07:03:39.28Z</time>
      </trkpt>
      <trkpt lat="44.42557" lon="5.11952">
        <ele>639</ele>
        <time>2021-04-27T07:04:29.53Z</time>
      </trkpt>
      <trkpt lat="44.42527" lon="5.11975">
        <ele>651</ele>
        <time>2021-04-27T07:05:30.55Z</time>
      </trkpt>
      <trkpt lat="44.42424" lon="5.12085">
        <ele>659</ele>
        <time>2021-04-27T07:09:00.65Z</time>
      </trkpt>
      <trkpt lat="44.424" lon="5.1213">
        <ele>667</ele>
        <time>2021-04-27T07:10:40.56Z</time>
      </trkpt>
      <trkpt lat="44.42392" lon="5.12179">
        <ele>676</ele>
        <time>2021-04-27T07:12:03.96Z</time>
      </trkpt>
      <trkpt lat="44.42384" lon="5.12194">
        <ele>678</ele>
        <time>2021-04-27T07:12:30.54Z</time>
      </trkpt>
      <trkpt lat="44.42387" lon="5.12213">
        <ele>679</ele>
        <time>2021-04-27T07:12:49.07Z</time>
      </trkpt>
      <trkpt lat="44.42398" lon="5.12204">
        <ele>679</ele>
        <time>2021-04-27T07:13:07.42Z</time>
      </trkpt>
      <trkpt lat="44.42428" lon="5.12129">
        <ele>675</ele>
        <time>2021-04-27T07:14:34.26Z</time>
      </trkpt>
      <trkpt lat="44.42436" lon="5.12129">
        <ele>675</ele>
        <time>2021-04-27T07:14:45.93Z</time>
      </trkpt>
      <trkpt lat="44.42439" lon="5.12137">
        <ele>676</ele>
        <time>2021-04-27T07:14:55.23Z</time>
      </trkpt>
      <trkpt lat="44.42421" lon="5.12185">
        <ele>681</ele>
        <time>2021-04-27T07:16:12.95Z</time>
      </trkpt>
      <trkpt lat="44.42402" lon="5.12256">
        <ele>690</ele>
        <time>2021-04-27T07:17:56.94Z</time>
      </trkpt>
      <trkpt lat="44.42392" lon="5.12264">
        <ele>691</ele>
        <time>2021-04-27T07:18:18.34Z</time>
      </trkpt>
      <trkpt lat="44.42362" lon="5.12258">
        <ele>694</ele>
        <time>2021-04-27T07:19:13.81Z</time>
      </trkpt>
      <trkpt lat="44.42355" lon="5.12266">
        <ele>695</ele>
        <time>2021-04-27T07:19:32.07Z</time>
      </trkpt>
      <trkpt lat="44.42352" lon="5.12296">
        <ele>699</ele>
        <time>2021-04-27T07:20:21.93Z</time>
      </trkpt>
      <trkpt lat="44.42343" lon="5.1232">
        <ele>703</ele>
        <time>2021-04-27T07:21:10.35Z</time>
      </trkpt>
      <trkpt lat="44.42336" lon="5.12325">
        <ele>705</ele>
        <time>2021-04-27T07:21:30.13Z</time>
      </trkpt>
      <trkpt lat="44.42326" lon="5.12314">
        <ele>708</ele>
        <time>2021-04-27T07:22:01.99Z</time>
      </trkpt>
      <trkpt lat="44.42314" lon="5.12284">
        <ele>714</ele>
        <time>2021-04-27T07:22:49.35Z</time>
      </trkpt>
      <trkpt lat="44.42309" lon="5.12289">
        <ele>716</ele>
        <time>2021-04-27T07:23:01.49Z</time>
      </trkpt>
      <trkpt lat="44.42333" lon="5.12393">
        <ele>723</ele>
        <time>2021-04-27T07:25:03.72Z</time>
      </trkpt>
      <trkpt lat="44.42347" lon="5.12404">
        <ele>723</ele>
        <time>2021-04-27T07:25:28.72Z</time>
      </trkpt>
      <trkpt lat="44.42398" lon="5.12391">
        <ele>726</ele>
        <time>2021-04-27T07:26:58.32Z</time>
      </trkpt>
      <trkpt lat="44.42426" lon="5.12426">
        <ele>733</ele>
        <time>2021-04-27T07:28:23.18Z</time>
      </trkpt>
      <trkpt lat="44.42423" lon="5.12441">
        <ele>735</ele>
        <time>2021-04-27T07:28:49.59Z</time>
      </trkpt>
      <trkpt lat="44.42382" lon="5.12442">
        <ele>743</ele>
        <time>2021-04-27T07:30:17.96Z</time>
      </trkpt>
      <trkpt lat="44.42368" lon="5.12475">
        <ele>747</ele>
        <time>2021-04-27T07:31:07.69Z</time>
      </trkpt>
      <trkpt lat="44.42374" lon="5.12486">
        <ele>748</ele>
        <time>2021-04-27T07:31:25.87Z</time>
      </trkpt>
      <trkpt lat="44.4241" lon="5.12492">
        <ele>752</ele>
        <time>2021-04-27T07:32:24.85Z</time>
      </trkpt>
      <trkpt lat="44.4245" lon="5.12512">
        <ele>755</ele>
        <time>2021-04-27T07:33:30.61Z</time>
      </trkpt>
      <trkpt lat="44.42464" lon="5.12459">
        <ele>758</ele>
        <time>2021-04-27T07:34:32.69Z</time>
      </trkpt>
      <trkpt lat="44.42515" lon="5.12372">
        <ele>763</ele>
        <time>2021-04-27T07:36:57.07Z</time>
      </trkpt>
      <trkpt lat="44.4252" lon="5.12374">
        <ele>763</ele>
        <time>2021-04-27T07:37:07.99Z</time>
      </trkpt>
      <trkpt lat="44.42497" lon="5.12565">
        <ele>785</ele>
        <time>2021-04-27T07:42:44.72Z</time>
      </trkpt>
      <trkpt lat="44.425" lon="5.1262">
        <ele>801</ele>
        <time>2021-04-27T07:44:29.83Z</time>
      </trkpt>
      <trkpt lat="44.42492" lon="5.12632">
        <ele>804</ele>
        <time>2021-04-27T07:44:59.54Z</time>
      </trkpt>
      <trkpt lat="44.42445" lon="5.12626">
        <ele>808</ele>
        <time>2021-04-27T07:46:09.44Z</time>
      </trkpt>
      <trkpt lat="44.42441" lon="5.12636">
        <ele>808</ele>
        <time>2021-04-27T07:46:22.34Z</time>
      </trkpt>
      <trkpt lat="44.42448" lon="5.12666">
        <ele>807</ele>
        <time>2021-04-27T07:46:55.57Z</time>
      </trkpt>
      <trkpt lat="44.42433" lon="5.12701">
        <ele>811</ele>
        <time>2021-04-27T07:48:02.22Z</time>
      </trkpt>
      <trkpt lat="44.42406" lon="5.12731">
        <ele>819</ele>
        <time>2021-04-27T07:49:29.57Z</time>
      </trkpt>
      <trkpt lat="44.42391" lon="5.12736">
        <ele>822</ele>
        <time>2021-04-27T07:50:05.79Z</time>
      </trkpt>
      <trkpt lat="44.42392" lon="5.12747">
        <ele>824</ele>
        <time>2021-04-27T07:50:17.41Z</time>
      </trkpt>
      <trkpt lat="44.42409" lon="5.12749">
        <ele>826</ele>
        <time>2021-04-27T07:50:41.42Z</time>
      </trkpt>
      <trkpt lat="44.42479" lon="5.12687">
        <ele>823</ele>
        <time>2021-04-27T07:52:35.56Z</time>
      </trkpt>
      <trkpt lat="44.42493" lon="5.12688">
        <ele>824</ele>
        <time>2021-04-27T07:52:59.01Z</time>
      </trkpt>
      <trkpt lat="44.42489" lon="5.12706">
        <ele>826</ele>
        <time>2021-04-27T07:53:30.11Z</time>
      </trkpt>
      <trkpt lat="44.4241" lon="5.12796">
        <ele>848</ele>
        <time>2021-04-27T07:56:49.63Z</time>
      </trkpt>
      <trkpt lat="44.4239" lon="5.12809">
        <ele>847</ele>
        <time>2021-04-27T07:57:26.88Z</time>
      </trkpt>
      <trkpt lat="44.42367" lon="5.12808">
        <ele>847</ele>
        <time>2021-04-27T07:57:57.51Z</time>
      </trkpt>
      <trkpt lat="44.42318" lon="5.12838">
        <ele>847</ele>
        <time>2021-04-27T07:59:18.20Z</time>
      </trkpt>
      <trkpt lat="44.42301" lon="5.12856">
        <ele>848</ele>
        <time>2021-04-27T07:59:50.09Z</time>
      </trkpt>
      <trkpt lat="44.42273" lon="5.12904">
        <ele>853</ele>
        <time>2021-04-27T08:00:59.57Z</time>
      </trkpt>
      <trkpt lat="44.42168" lon="5.12986">
        <ele>860</ele>
        <time>2021-04-27T08:03:52.97Z</time>
      </trkpt>
      <trkpt lat="44.42152" lon="5.13045">
        <ele>857</ele>
        <time>2021-04-27T08:04:55.28Z</time>
      </trkpt>
      <trkpt lat="44.4216" lon="5.13104">
        <ele>858</ele>
        <time>2021-04-27T08:05:59.62Z</time>
      </trkpt>
      <trkpt lat="44.42151" lon="5.13133">
        <ele>860</ele>
        <time>2021-04-27T08:06:37.90Z</time>
      </trkpt>
      <trkpt lat="44.42149" lon="5.13235">
        <ele>868</ele>
        <time>2021-04-27T08:08:42.94Z</time>
      </trkpt>
      <trkpt lat="44.42141" lon="5.13252">
        <ele>870</ele>
        <time>2021-04-27T08:09:07.56Z</time>
      </trkpt>
      <trkpt lat="44.42137" lon="5.13297">
        <ele>873</ele>
        <time>2021-04-27T08:09:59.28Z</time>
      </trkpt>
      <trkpt lat="44.4214" lon="5.13304">
        <ele>874</ele>
        <time>2021-04-27T08:10:08.65Z</time>
      </trkpt>
      <trkpt lat="44.42148" lon="5.133">
        <ele>874</ele>
        <time>2021-04-27T08:10:23.74Z</time>
      </trkpt>
      <trkpt lat="44.42154" lon="5.13275">
        <ele>876</ele>
        <time>2021-04-27T08:10:54.45Z</time>
      </trkpt>
      <trkpt lat="44.42192" lon="5.13211">
        <ele>882</ele>
        <time>2021-04-27T08:12:45.56Z</time>
      </trkpt>
      <trkpt lat="44.42196" lon="5.13194">
        <ele>885</ele>
        <time>2021-04-27T08:13:10.44Z</time>
      </trkpt>
      <trkpt lat="44.42207" lon="5.13195">
        <ele>887</ele>
        <time>2021-04-27T08:13:36.47Z</time>
      </trkpt>
      <trkpt lat="44.42202" lon="5.13231">
        <ele>892</ele>
        <time>2021-04-27T08:14:38.33Z</time>
      </trkpt>
      <trkpt lat="44.42206" lon="5.13292">
        <ele>901</ele>
        <time>2021-04-27T08:16:06.73Z</time>
      </trkpt>
      <trkpt lat="44.42188" lon="5.13334">
        <ele>904</ele>
        <time>2021-04-27T08:16:59.62Z</time>
      </trkpt>
      <trkpt lat="44.4217" lon="5.13407">
        <ele>906</ele>
        <time>2021-04-27T08:18:20.67Z</time>
      </trkpt>
      <trkpt lat="44.42171" lon="5.1345">
        <ele>907</ele>
        <time>2021-04-27T08:19:09.41Z</time>
      </trkpt>
      <trkpt lat="44.42176" lon="5.13479">
        <ele>908</ele>
        <time>2021-04-27T08:19:43.28Z</time>
      </trkpt>
      <trkpt lat="44.42171" lon="5.13536">
        <ele>913</ele>
        <time>2021-04-27T08:21:11.93Z</time>
      </trkpt>
      <trkpt lat="44.42176" lon="5.13583">
        <ele>921</ele>
        <time>2021-04-27T08:22:41.27Z</time>
      </trkpt>
      <trkpt lat="44.42167" lon="5.13635">
        <ele>930</ele>
        <time>2021-04-27T08:24:05.72Z</time>
      </trkpt>
      <trkpt lat="44.4214" lon="5.13686">
        <ele>936</ele>
        <time>2021-04-27T08:25:18.18Z</time>
      </trkpt>
      <trkpt lat="44.42112" lon="5.13719">
        <ele>937</ele>
        <time>2021-04-27T08:26:11.49Z</time>
      </trkpt>
      <trkpt lat="44.42076" lon="5.13747">
        <ele>938</ele>
        <time>2021-04-27T08:27:13.36Z</time>
      </trkpt>
      <trkpt lat="44.42076" lon="5.13796">
        <ele>941</ele>
        <time>2021-04-27T08:28:11.69Z</time>
      </trkpt>
      <trkpt lat="44.42066" lon="5.13826">
        <ele>944</ele>
        <time>2021-04-27T08:28:54.65Z</time>
      </trkpt>
      <trkpt lat="44.42058" lon="5.13894">
        <ele>950</ele>
        <time>2021-04-27T08:30:15.67Z</time>
      </trkpt>
      <trkpt lat="44.42026" lon="5.13929">
        <ele>953</ele>
        <time>2021-04-27T08:31:14.48Z</time>
      </trkpt>
      <trkpt lat="44.42006" lon="5.13972">
        <ele>952</ele>
        <time>2021-04-27T08:32:09.18Z</time>
      </trkpt>
      <trkpt lat="44.42007" lon="5.14124">
        <ele>960</ele>
        <time>2021-04-27T08:35:30.28Z</time>
      </trkpt>
      <trkpt lat="44.42004" lon="5.14156">
        <ele>969</ele>
        <time>2021-04-27T08:36:07.33Z</time>
      </trkpt>
      <trkpt lat="44.41995" lon="5.14175">
        <ele>974</ele>
        <time>2021-04-27T08:36:33.64Z</time>
      </trkpt>
      <trkpt lat="44.41926" lon="5.14228">
        <ele>970</ele>
        <time>2021-04-27T08:38:21.75Z</time>
      </trkpt>
      <trkpt lat="44.41807" lon="5.1433">
        <ele>971</ele>
        <time>2021-04-27T08:41:38.44Z</time>
      </trkpt>
      <trkpt lat="44.41766" lon="5.1441">
        <ele>972</ele>
        <time>2021-04-27T08:43:25.47Z</time>
      </trkpt>
      <trkpt lat="44.41724" lon="5.14501">
        <ele>980</ele>
        <time>2021-04-27T08:45:36.17Z</time>
      </trkpt>
      <trkpt lat="44.4183" lon="5.14385">
        <ele>994</ele>
        <time>2021-04-27T08:49:40.22Z</time>
      </trkpt>
      <trkpt lat="44.41862" lon="5.14364">
        <ele>1001</ele>
        <time>2021-04-27T08:50:50.91Z</time>
      </trkpt>
      <trkpt lat="44.41989" lon="5.14314">
        <ele>1019</ele>
        <time>2021-04-27T08:54:46.11Z</time>
      </trkpt>
      <trkpt lat="44.42046" lon="5.14284">
        <ele>1024</ele>
        <time>2021-04-27T08:56:30.35Z</time>
      </trkpt>
      <trkpt lat="44.42072" lon="5.14261">
        <ele>1029</ele>
        <time>2021-04-27T08:57:32.19Z</time>
      </trkpt>
      <trkpt lat="44.42142" lon="5.14154">
        <ele>1044</ele>
        <time>2021-04-27T09:00:41.90Z</time>
      </trkpt>
      <trkpt lat="44.42304" lon="5.13982">
        <ele>1068</ele>
        <time>2021-04-27T09:06:50.75Z</time>
      </trkpt>
      <trkpt lat="44.42325" lon="5.13968">
        <ele>1072</ele>
        <time>2021-04-27T09:07:44.65Z</time>
      </trkpt>
      <trkpt lat="44.42369" lon="5.13964">
        <ele>1081</ele>
        <time>2021-04-27T09:08:54.16Z</time>
      </trkpt>
      <trkpt lat="44.42454" lon="5.13873">
        <ele>1083</ele>
        <time>2021-04-27T09:11:48.83Z</time>
      </trkpt>
      <trkpt lat="44.42461" lon="5.13872">
        <ele>1082</ele>
        <time>2021-04-27T09:11:59.57Z</time>
      </trkpt>
      <trkpt lat="44.42458" lon="5.13892">
        <ele>1084</ele>
        <time>2021-04-27T09:12:24.04Z</time>
      </trkpt>
      <trkpt lat="44.4229" lon="5.14353">
        <ele>1130</ele>
        <time>2021-04-27T09:22:56.85Z</time>
      </trkpt>
      <trkpt lat="44.42243" lon="5.14447">
        <ele>1133</ele>
        <time>2021-04-27T09:25:01.59Z</time>
      </trkpt>
      <trkpt lat="44.42272" lon="5.14414">
        <ele>1137</ele>
        <time>2021-04-27T09:26:05.63Z</time>
      </trkpt>
      <trkpt lat="44.424" lon="5.14326">
        <ele>1153</ele>
        <time>2021-04-27T09:29:56.11Z</time>
      </trkpt>
      <trkpt lat="44.42454" lon="5.14285">
        <ele>1156</ele>
        <time>2021-04-27T09:31:29.76Z</time>
      </trkpt>
      <trkpt lat="44.42492" lon="5.14232">
        <ele>1159</ele>
        <time>2021-04-27T09:32:49.32Z</time>
      </trkpt>
      <trkpt lat="44.42529" lon="5.14158">
        <ele>1161</ele>
        <time>2021-04-27T09:34:46.87Z</time>
      </trkpt>
      <trkpt lat="44.42537" lon="5.1418">
        <ele>1165</ele>
        <time>2021-04-27T09:35:18.90Z</time>
      </trkpt>
      <trkpt lat="44.42538" lon="5.14221">
        <ele>1173</ele>
        <time>2021-04-27T09:36:25.06Z</time>
      </trkpt>
      <trkpt lat="44.42543" lon="5.14234">
        <ele>1175</ele>
        <time>2021-04-27T09:36:49.33Z</time>
      </trkpt>
      <trkpt lat="44.42521" lon="5.14328">
        <ele>1186</ele>
        <time>2021-04-27T09:39:10.67Z</time>
      </trkpt>
      <trkpt lat="44.42505" lon="5.14432">
        <ele>1197</ele>
        <time>2021-04-27T09:41:36.42Z</time>
      </trkpt>
      <trkpt lat="44.42505" lon="5.14467">
        <ele>1200</ele>
        <time>2021-04-27T09:42:15.02Z</time>
      </trkpt>
      <trkpt lat="44.42498" lon="5.14484">
        <ele>1201</ele>
        <time>2021-04-27T09:42:37Z</time>
      </trkpt>
      <trkpt lat="44.42509" lon="5.14537">
        <ele>1202</ele>
        <time>2021-04-27T09:43:31.88Z</time>
      </trkpt>
      <trkpt lat="44.42498" lon="5.14484">
        <ele>1200</ele>
        <time>2021-04-27T09:44:26.75Z</time>
      </trkpt>
      <trkpt lat="44.42505" lon="5.14467">
        <ele>1200</ele>
        <time>2021-04-27T09:44:46.46Z</time>
      </trkpt>
      <trkpt lat="44.42505" lon="5.14432">
        <ele>1198</ele>
        <time>2021-04-27T09:45:25Z</time>
      </trkpt>
      <trkpt lat="44.42521" lon="5.14328">
        <ele>1186</ele>
        <time>2021-04-27T09:47:29.25Z</time>
      </trkpt>
      <trkpt lat="44.42543" lon="5.14234">
        <ele>1174</ele>
        <time>2021-04-27T09:49:06.94Z</time>
      </trkpt>
      <trkpt lat="44.42601" lon="5.14207">
        <ele>1184</ele>
        <time>2021-04-27T09:51:49.17Z</time>
      </trkpt>
      <trkpt lat="44.42666" lon="5.14146">
        <ele>1207</ele>
        <time>2021-04-27T09:55:18.01Z</time>
      </trkpt>
      <trkpt lat="44.42678" lon="5.14126">
        <ele>1211</ele>
        <time>2021-04-27T09:56:06.52Z</time>
      </trkpt>
      <trkpt lat="44.42688" lon="5.1408">
        <ele>1215</ele>
        <time>2021-04-27T09:56:58.59Z</time>
      </trkpt>
      <trkpt lat="44.42673" lon="5.13895">
        <ele>1190</ele>
        <time>2021-04-27T10:00:59.80Z</time>
      </trkpt>
      <trkpt lat="44.42664" lon="5.13856">
        <ele>1183</ele>
        <time>2021-04-27T10:01:44.02Z</time>
      </trkpt>
      <trkpt lat="44.42666" lon="5.13837">
        <ele>1181</ele>
        <time>2021-04-27T10:02:05.04Z</time>
      </trkpt>
      <trkpt lat="44.4266" lon="5.13781">
        <ele>1179</ele>
        <time>2021-04-27T10:03:01.48Z</time>
      </trkpt>
      <trkpt lat="44.42665" lon="5.13703">
        <ele>1180</ele>
        <time>2021-04-27T10:04:19.15Z</time>
      </trkpt>
      <trkpt lat="44.42686" lon="5.13623">
        <ele>1175</ele>
        <time>2021-04-27T10:05:52.82Z</time>
      </trkpt>
      <trkpt lat="44.42717" lon="5.13586">
        <ele>1166</ele>
        <time>2021-04-27T10:06:55.69Z</time>
      </trkpt>
      <trkpt lat="44.42849" lon="5.13484">
        <ele>1147</ele>
        <time>2021-04-27T10:10:49.06Z</time>
      </trkpt>
      <trkpt lat="44.4291" lon="5.13418">
        <ele>1133</ele>
        <time>2021-04-27T10:13:29.87Z</time>
      </trkpt>
      <trkpt lat="44.42954" lon="5.13341">
        <ele>1110</ele>
        <time>2021-04-27T10:16:39.02Z</time>
      </trkpt>
      <trkpt lat="44.4296" lon="5.13256">
        <ele>1089</ele>
        <time>2021-04-27T10:19:21.99Z</time>
      </trkpt>
      <trkpt lat="44.42962" lon="5.13111">
        <ele>1055</ele>
        <time>2021-04-27T10:24:04.41Z</time>
      </trkpt>
      <trkpt lat="44.42976" lon="5.13029">
        <ele>1033</ele>
        <time>2021-04-27T10:26:40.30Z</time>
      </trkpt>
      <trkpt lat="44.42996" lon="5.12983">
        <ele>1023</ele>
        <time>2021-04-27T10:27:58.02Z</time>
      </trkpt>
      <trkpt lat="44.43034" lon="5.12974">
        <ele>1015</ele>
        <time>2021-04-27T10:29:05.81Z</time>
      </trkpt>
      <trkpt lat="44.43124" lon="5.13003">
        <ele>998</ele>
        <time>2021-04-27T10:31:47.04Z</time>
      </trkpt>
      <trkpt lat="44.4315" lon="5.12996">
        <ele>993</ele>
        <time>2021-04-27T10:32:30.30Z</time>
      </trkpt>
      <trkpt lat="44.43201" lon="5.12967">
        <ele>985</ele>
        <time>2021-04-27T10:33:47.42Z</time>
      </trkpt>
      <trkpt lat="44.43164" lon="5.12917">
        <ele>985</ele>
        <time>2021-04-27T10:34:59.14Z</time>
      </trkpt>
      <trkpt lat="44.43165" lon="5.12909">
        <ele>985</ele>
        <time>2021-04-27T10:35:07.51Z</time>
      </trkpt>
      <trkpt lat="44.43236" lon="5.12901">
        <ele>987</ele>
        <time>2021-04-27T10:36:45.39Z</time>
      </trkpt>
      <trkpt lat="44.43243" lon="5.12871">
        <ele>981</ele>
        <time>2021-04-27T10:37:46.93Z</time>
      </trkpt>
      <trkpt lat="44.43211" lon="5.12821">
        <ele>963</ele>
        <time>2021-04-27T10:39:46.47Z</time>
      </trkpt>
      <trkpt lat="44.43183" lon="5.12711">
        <ele>940</ele>
        <time>2021-04-27T10:42:48.72Z</time>
      </trkpt>
      <trkpt lat="44.4315" lon="5.1268">
        <ele>930</ele>
        <time>2021-04-27T10:44:14.51Z</time>
      </trkpt>
      <trkpt lat="44.43127" lon="5.12673">
        <ele>923</ele>
        <time>2021-04-27T10:45:11.09Z</time>
      </trkpt>
      <trkpt lat="44.43108" lon="5.12655">
        <ele>916</ele>
        <time>2021-04-27T10:46:03.04Z</time>
      </trkpt>
      <trkpt lat="44.43094" lon="5.12629">
        <ele>910</ele>
        <time>2021-04-27T10:46:38.33Z</time>
      </trkpt>
      <trkpt lat="44.43072" lon="5.12478">
        <ele>898</ele>
        <time>2021-04-27T10:49:25.27Z</time>
      </trkpt>
      <trkpt lat="44.43018" lon="5.12268">
        <ele>877</ele>
        <time>2021-04-27T10:53:30.08Z</time>
      </trkpt>
      <trkpt lat="44.43007" lon="5.12207">
        <ele>870</ele>
        <time>2021-04-27T10:54:34.76Z</time>
      </trkpt>
      <trkpt lat="44.4302" lon="5.12106">
        <ele>867</ele>
        <time>2021-04-27T10:56:15.68Z</time>
      </trkpt>
      <trkpt lat="44.43038" lon="5.1203">
        <ele>863</ele>
        <time>2021-04-27T10:57:40.03Z</time>
      </trkpt>
      <trkpt lat="44.43041" lon="5.11981">
        <ele>857</ele>
        <time>2021-04-27T10:58:40.68Z</time>
      </trkpt>
      <trkpt lat="44.43045" lon="5.11959">
        <ele>854</ele>
        <time>2021-04-27T10:59:08.69Z</time>
      </trkpt>
      <trkpt lat="44.43055" lon="5.11941">
        <ele>851</ele>
        <time>2021-04-27T10:59:36.31Z</time>
      </trkpt>
      <trkpt lat="44.43054" lon="5.11933">
        <ele>850</ele>
        <time>2021-04-27T10:59:45.02Z</time>
      </trkpt>
      <trkpt lat="44.43047" lon="5.11933">
        <ele>848</ele>
        <time>2021-04-27T10:59:55.51Z</time>
      </trkpt>
      <trkpt lat="44.43038" lon="5.11944">
        <ele>847</ele>
        <time>2021-04-27T11:00:11.83Z</time>
      </trkpt>
      <trkpt lat="44.43024" lon="5.11998">
        <ele>846</ele>
        <time>2021-04-27T11:01:10.24Z</time>
      </trkpt>
      <trkpt lat="44.4294" lon="5.12115">
        <ele>834</ele>
        <time>2021-04-27T11:04:14.61Z</time>
      </trkpt>
      <trkpt lat="44.42921" lon="5.12162">
        <ele>823</ele>
        <time>2021-04-27T11:05:13.04Z</time>
      </trkpt>
      <trkpt lat="44.42913" lon="5.12168">
        <ele>822</ele>
        <time>2021-04-27T11:05:25.98Z</time>
      </trkpt>
      <trkpt lat="44.42908" lon="5.12165">
        <ele>821</ele>
        <time>2021-04-27T11:05:34.30Z</time>
      </trkpt>
      <trkpt lat="44.4291" lon="5.12097">
        <ele>822</ele>
        <time>2021-04-27T11:06:41.67Z</time>
      </trkpt>
      <trkpt lat="44.42935" lon="5.12014">
        <ele>817</ele>
        <time>2021-04-27T11:08:24.20Z</time>
      </trkpt>
      <trkpt lat="44.42928" lon="5.12009">
        <ele>815</ele>
        <time>2021-04-27T11:08:36.14Z</time>
      </trkpt>
      <trkpt lat="44.42886" lon="5.12062">
        <ele>802</ele>
        <time>2021-04-27T11:10:09.84Z</time>
      </trkpt>
      <trkpt lat="44.42879" lon="5.12082">
        <ele>800</ele>
        <time>2021-04-27T11:10:35.54Z</time>
      </trkpt>
      <trkpt lat="44.42879" lon="5.12134">
        <ele>797</ele>
        <time>2021-04-27T11:11:29.91Z</time>
      </trkpt>
      <trkpt lat="44.42875" lon="5.12145">
        <ele>796</ele>
        <time>2021-04-27T11:11:43.47Z</time>
      </trkpt>
      <trkpt lat="44.42869" lon="5.1214">
        <ele>796</ele>
        <time>2021-04-27T11:11:52.96Z</time>
      </trkpt>
      <trkpt lat="44.42857" lon="5.12027">
        <ele>786</ele>
        <time>2021-04-27T11:13:58.23Z</time>
      </trkpt>
      <trkpt lat="44.42869" lon="5.11986">
        <ele>781</ele>
        <time>2021-04-27T11:14:49.29Z</time>
      </trkpt>
      <trkpt lat="44.42868" lon="5.11937">
        <ele>775</ele>
        <time>2021-04-27T11:15:44.25Z</time>
      </trkpt>
      <trkpt lat="44.42877" lon="5.11893">
        <ele>771</ele>
        <time>2021-04-27T11:16:34.18Z</time>
      </trkpt>
      <trkpt lat="44.42909" lon="5.11831">
        <ele>764</ele>
        <time>2021-04-27T11:17:55.68Z</time>
      </trkpt>
      <trkpt lat="44.42947" lon="5.11746">
        <ele>756</ele>
        <time>2021-04-27T11:19:45.40Z</time>
      </trkpt>
      <trkpt lat="44.4297" lon="5.11663">
        <ele>746</ele>
        <time>2021-04-27T11:21:25.52Z</time>
      </trkpt>
      <trkpt lat="44.42998" lon="5.11621">
        <ele>740</ele>
        <time>2021-04-27T11:22:28.99Z</time>
      </trkpt>
      <trkpt lat="44.4299" lon="5.11611">
        <ele>738</ele>
        <time>2021-04-27T11:22:46.85Z</time>
      </trkpt>
      <trkpt lat="44.42962" lon="5.11622">
        <ele>735</ele>
        <time>2021-04-27T11:23:27.75Z</time>
      </trkpt>
      <trkpt lat="44.42915" lon="5.11706">
        <ele>729</ele>
        <time>2021-04-27T11:25:16.12Z</time>
      </trkpt>
      <trkpt lat="44.42886" lon="5.11723">
        <ele>727</ele>
        <time>2021-04-27T11:26:01.90Z</time>
      </trkpt>
      <trkpt lat="44.42834" lon="5.11791">
        <ele>720</ele>
        <time>2021-04-27T11:27:47.70Z</time>
      </trkpt>
      <trkpt lat="44.42826" lon="5.1178">
        <ele>718</ele>
        <time>2021-04-27T11:28:03.59Z</time>
      </trkpt>
      <trkpt lat="44.42851" lon="5.11749">
        <ele>714</ele>
        <time>2021-04-27T11:28:53.65Z</time>
      </trkpt>
      <trkpt lat="44.42865" lon="5.11693">
        <ele>709</ele>
        <time>2021-04-27T11:29:55.53Z</time>
      </trkpt>
      <trkpt lat="44.42898" lon="5.11644">
        <ele>705</ele>
        <time>2021-04-27T11:31:05.04Z</time>
      </trkpt>
      <trkpt lat="44.42904" lon="5.11618">
        <ele>704</ele>
        <time>2021-04-27T11:31:33.21Z</time>
      </trkpt>
      <trkpt lat="44.4292" lon="5.11586">
        <ele>701</ele>
        <time>2021-04-27T11:32:14Z</time>
      </trkpt>
      <trkpt lat="44.42924" lon="5.11551">
        <ele>699</ele>
        <time>2021-04-27T11:32:51.12Z</time>
      </trkpt>
      <trkpt lat="44.42933" lon="5.11533">
        <ele>697</ele>
        <time>2021-04-27T11:33:14.16Z</time>
      </trkpt>
      <trkpt lat="44.4296" lon="5.11531">
        <ele>694</ele>
        <time>2021-04-27T11:33:54.63Z</time>
      </trkpt>
      <trkpt lat="44.42971" lon="5.11524">
        <ele>693</ele>
        <time>2021-04-27T11:34:13.27Z</time>
      </trkpt>
      <trkpt lat="44.42967" lon="5.11511">
        <ele>691</ele>
        <time>2021-04-27T11:34:28.65Z</time>
      </trkpt>
      <trkpt lat="44.42954" lon="5.11513">
        <ele>689</ele>
        <time>2021-04-27T11:34:49.63Z</time>
      </trkpt>
      <trkpt lat="44.42934" lon="5.11497">
        <ele>686</ele>
        <time>2021-04-27T11:35:27.58Z</time>
      </trkpt>
      <trkpt lat="44.42914" lon="5.11492">
        <ele>683</ele>
        <time>2021-04-27T11:36:00.04Z</time>
      </trkpt>
      <trkpt lat="44.42865" lon="5.11554">
        <ele>671</ele>
        <time>2021-04-27T11:38:00.30Z</time>
      </trkpt>
      <trkpt lat="44.42831" lon="5.11562">
        <ele>663</ele>
        <time>2021-04-27T11:39:04.10Z</time>
      </trkpt>
      <trkpt lat="44.428" lon="5.11577">
        <ele>657</ele>
        <time>2021-04-27T11:39:55.46Z</time>
      </trkpt>
      <trkpt lat="44.42785" lon="5.11634">
        <ele>652</ele>
        <time>2021-04-27T11:40:57.35Z</time>
      </trkpt>
      <trkpt lat="44.42755" lon="5.117">
        <ele>649</ele>
        <time>2021-04-27T11:42:18.42Z</time>
      </trkpt>
      <trkpt lat="44.42695" lon="5.11782">
        <ele>639</ele>
        <time>2021-04-27T11:44:26.33Z</time>
      </trkpt>
      <trkpt lat="44.42682" lon="5.11788">
        <ele>637</ele>
        <time>2021-04-27T11:44:46.86Z</time>
      </trkpt>
      <trkpt lat="44.42664" lon="5.11786">
        <ele>634</ele>
        <time>2021-04-27T11:45:13.62Z</time>
      </trkpt>
      <trkpt lat="44.42647" lon="5.11799">
        <ele>632</ele>
        <time>2021-04-27T11:45:41.76Z</time>
      </trkpt>
      <trkpt lat="44.42613" lon="5.11837">
        <ele>629</ele>
        <time>2021-04-27T11:46:42.48Z</time>
      </trkpt>
      <trkpt lat="44.42592" lon="5.11891">
        <ele>628</ele>
        <time>2021-04-27T11:47:42.96Z</time>
      </trkpt>
      <trkpt lat="44.42585" lon="5.11895">
        <ele>628</ele>
        <time>2021-04-27T11:47:54.10Z</time>
      </trkpt>
      <trkpt lat="44.42529" lon="5.11892">
        <ele>622</ele>
        <time>2021-04-27T11:49:17.17Z</time>
      </trkpt>
    </trkseg>
  </trk>
</gpx>